sensor_id;sensor_type;location;lat;lon;timestamp;P1;durP1;ratioP1;P2;durP2;ratioP2
56233;SDS011;42141;53.240;6.580;2022-10-31T00:00:18;31.08;;;12.90;;
56233;SDS011;42141;53.240;6.580;2022-10-31T00:02:44;28.05;;;11.70;;
56233;SDS011;42141;53.240;6.580;2022-10-31T00:05:09;24.30;;;12.90;;
56233;SDS011;42141;53.240;6.580;2022-10-31T00:07:35;25.20;;;12.85;;
56233;SDS011;42141;53.240;6.580;2022-10-31T00:10:01;27.50;;;11.68;;
56233;SDS011;42141;53.240;6.580;2022-10-31T00:12:26;30.85;;;13.40;;
56233;SDS011;42141;53.240;6.580;2022-10-31T00:14:52;31.67;;;14.02;;
56233;SDS011;42141;53.240;6.580;2022-10-31T00:17:18;30.45;;;12.90;;
56233;SDS011;42141;53.240;6.580;2022-10-31T00:19:43;26.55;;;12.15;;
56233;SDS011;42141;53.240;6.580;2022-10-31T00:22:10;23.00;;;12.43;;
56233;SDS011;42141;53.240;6.580;2022-10-31T00:24:36;28.52;;;13.20;;
56233;SDS011;42141;53.240;6.580;2022-10-31T00:27:01;30.02;;;12.95;;
56233;SDS011;42141;53.240;6.580;2022-10-31T00:29:27;27.25;;;13.00;;
56233;SDS011;42141;53.240;6.580;2022-10-31T00:31:53;23.48;;;12.90;;
56233;SDS011;42141;53.240;6.580;2022-10-31T00:34:18;25.67;;;14.23;;
56233;SDS011;42141;53.240;6.580;2022-10-31T00:36:44;32.08;;;13.75;;
56233;SDS011;42141;53.240;6.580;2022-10-31T00:39:09;23.92;;;13.43;;
56233;SDS011;42141;53.240;6.580;2022-10-31T00:41:35;27.35;;;13.90;;
56233;SDS011;42141;53.240;6.580;2022-10-31T00:44:01;25.10;;;13.95;;
56233;SDS011;42141;53.240;6.580;2022-10-31T00:46:27;22.75;;;13.80;;
56233;SDS011;42141;53.240;6.580;2022-10-31T00:48:53;32.75;;;15.20;;
56233;SDS011;42141;53.240;6.580;2022-10-31T00:51:19;29.98;;;15.20;;
56233;SDS011;42141;53.240;6.580;2022-10-31T00:53:44;32.28;;;15.98;;
56233;SDS011;42141;53.240;6.580;2022-10-31T00:56:10;26.83;;;15.20;;
56233;SDS011;42141;53.240;6.580;2022-10-31T00:58:36;24.38;;;13.90;;
56233;SDS011;42141;53.240;6.580;2022-10-31T01:01:02;40.05;;;15.30;;
56233;SDS011;42141;53.240;6.580;2022-10-31T01:03:29;30.23;;;14.55;;
56233;SDS011;42141;53.240;6.580;2022-10-31T01:08:34;32.33;;;15.82;;
56233;SDS011;42141;53.240;6.580;2022-10-31T01:11:07;31.52;;;15.50;;
56233;SDS011;42141;53.240;6.580;2022-10-31T01:13:38;29.27;;;15.38;;
56233;SDS011;42141;53.240;6.580;2022-10-31T01:16:05;28.80;;;15.30;;
56233;SDS011;42141;53.240;6.580;2022-10-31T01:18:32;34.53;;;16.00;;
56233;SDS011;42141;53.240;6.580;2022-10-31T01:21:00;27.55;;;15.80;;
56233;SDS011;42141;53.240;6.580;2022-10-31T01:23:26;27.67;;;14.13;;
56233;SDS011;42141;53.240;6.580;2022-10-31T01:26:00;27.25;;;14.73;;
56233;SDS011;42141;53.240;6.580;2022-10-31T01:28:26;23.58;;;13.60;;
56233;SDS011;42141;53.240;6.580;2022-10-31T01:30:52;28.17;;;14.80;;
56233;SDS011;42141;53.240;6.580;2022-10-31T01:33:17;28.65;;;14.57;;
56233;SDS011;42141;53.240;6.580;2022-10-31T01:35:43;29.50;;;13.77;;
56233;SDS011;42141;53.240;6.580;2022-10-31T01:38:12;24.70;;;13.98;;
56233;SDS011;42141;53.240;6.580;2022-10-31T01:40:37;25.52;;;14.82;;
56233;SDS011;42141;53.240;6.580;2022-10-31T01:43:03;24.80;;;14.23;;
56233;SDS011;42141;53.240;6.580;2022-10-31T01:45:29;31.27;;;14.65;;
56233;SDS011;42141;53.240;6.580;2022-10-31T01:47:54;29.27;;;13.80;;
56233;SDS011;42141;53.240;6.580;2022-10-31T01:50:26;25.30;;;13.35;;
56233;SDS011;42141;53.240;6.580;2022-10-31T01:52:56;27.23;;;13.25;;
56233;SDS011;42141;53.240;6.580;2022-10-31T01:55:29;27.13;;;13.13;;
56233;SDS011;42141;53.240;6.580;2022-10-31T01:58:01;24.60;;;13.18;;
56233;SDS011;42141;53.240;6.580;2022-10-31T02:00:31;28.60;;;12.80;;
56233;SDS011;42141;53.240;6.580;2022-10-31T02:02:57;24.15;;;13.68;;
56233;SDS011;42141;53.240;6.580;2022-10-31T02:05:25;26.00;;;13.20;;
56233;SDS011;42141;53.240;6.580;2022-10-31T02:07:54;34.80;;;13.30;;
56233;SDS011;42141;53.240;6.580;2022-10-31T02:10:23;30.10;;;14.23;;
56233;SDS011;42141;53.240;6.580;2022-10-31T02:12:50;26.13;;;13.70;;
56233;SDS011;42141;53.240;6.580;2022-10-31T02:15:17;25.58;;;12.82;;
56233;SDS011;42141;53.240;6.580;2022-10-31T02:17:43;29.30;;;13.60;;
56233;SDS011;42141;53.240;6.580;2022-10-31T02:20:12;27.95;;;14.27;;
56233;SDS011;42141;53.240;6.580;2022-10-31T02:37:08;29.48;;;16.05;;
56233;SDS011;42141;53.240;6.580;2022-10-31T02:39:52;24.95;;;14.25;;
56233;SDS011;42141;53.240;6.580;2022-10-31T02:45:08;28.52;;;14.25;;
56233;SDS011;42141;53.240;6.580;2022-10-31T02:47:42;26.30;;;14.15;;
56233;SDS011;42141;53.240;6.580;2022-10-31T02:50:20;23.05;;;13.50;;
56233;SDS011;42141;53.240;6.580;2022-10-31T02:52:50;23.02;;;14.38;;
56233;SDS011;42141;53.240;6.580;2022-10-31T02:57:53;29.55;;;14.23;;
56233;SDS011;42141;53.240;6.580;2022-10-31T03:00:22;29.98;;;13.68;;
56233;SDS011;42141;53.240;6.580;2022-10-31T03:03:03;24.80;;;13.98;;
56233;SDS011;42141;53.240;6.580;2022-10-31T03:05:59;34.97;;;15.05;;
56233;SDS011;42141;53.240;6.580;2022-10-31T03:08:50;24.75;;;13.75;;
56233;SDS011;42141;53.240;6.580;2022-10-31T03:13:49;26.42;;;14.77;;
56233;SDS011;42141;53.240;6.580;2022-10-31T03:16:30;26.33;;;14.50;;
56233;SDS011;42141;53.240;6.580;2022-10-31T03:19:10;25.17;;;14.63;;
56233;SDS011;42141;53.240;6.580;2022-10-31T03:21:44;27.38;;;13.88;;
56233;SDS011;42141;53.240;6.580;2022-10-31T03:24:12;28.88;;;14.00;;
56233;SDS011;42141;53.240;6.580;2022-10-31T03:26:44;29.35;;;14.38;;
56233;SDS011;42141;53.240;6.580;2022-10-31T03:29:13;26.10;;;14.15;;
56233;SDS011;42141;53.240;6.580;2022-10-31T03:31:43;22.55;;;13.10;;
56233;SDS011;42141;53.240;6.580;2022-10-31T03:34:11;27.08;;;13.88;;
56233;SDS011;42141;53.240;6.580;2022-10-31T03:36:38;26.98;;;14.82;;
56233;SDS011;42141;53.240;6.580;2022-10-31T03:39:05;22.95;;;14.32;;
56233;SDS011;42141;53.240;6.580;2022-10-31T03:41:33;27.65;;;14.38;;
56233;SDS011;42141;53.240;6.580;2022-10-31T03:44:07;27.88;;;14.10;;
56233;SDS011;42141;53.240;6.580;2022-10-31T03:46:37;28.65;;;14.07;;
56233;SDS011;42141;53.240;6.580;2022-10-31T03:49:03;22.48;;;12.77;;
56233;SDS011;42141;53.240;6.580;2022-10-31T03:51:40;20.90;;;12.50;;
56233;SDS011;42141;53.240;6.580;2022-10-31T03:54:28;23.02;;;14.48;;
56233;SDS011;42141;53.240;6.580;2022-10-31T03:57:09;22.65;;;13.07;;
56233;SDS011;42141;53.240;6.580;2022-10-31T03:59:43;30.42;;;13.75;;
56233;SDS011;42141;53.240;6.580;2022-10-31T04:02:13;23.90;;;13.02;;
56233;SDS011;42141;53.240;6.580;2022-10-31T04:04:41;21.92;;;12.52;;
56233;SDS011;42141;53.240;6.580;2022-10-31T04:07:09;25.45;;;12.32;;
56233;SDS011;42141;53.240;6.580;2022-10-31T04:09:36;26.42;;;14.00;;
56233;SDS011;42141;53.240;6.580;2022-10-31T04:14:37;23.70;;;13.32;;
56233;SDS011;42141;53.240;6.580;2022-10-31T04:17:05;23.85;;;12.05;;
56233;SDS011;42141;53.240;6.580;2022-10-31T04:19:36;21.38;;;12.77;;
56233;SDS011;42141;53.240;6.580;2022-10-31T04:22:02;19.73;;;12.85;;
56233;SDS011;42141;53.240;6.580;2022-10-31T04:24:27;21.17;;;12.57;;
56233;SDS011;42141;53.240;6.580;2022-10-31T04:26:53;19.40;;;12.90;;
56233;SDS011;42141;53.240;6.580;2022-10-31T04:29:19;20.88;;;12.07;;
56233;SDS011;42141;53.240;6.580;2022-10-31T04:31:44;23.27;;;11.63;;
56233;SDS011;42141;53.240;6.580;2022-10-31T04:34:10;22.85;;;13.00;;
56233;SDS011;42141;53.240;6.580;2022-10-31T04:36:36;23.83;;;13.63;;
56233;SDS011;42141;53.240;6.580;2022-10-31T04:39:02;23.88;;;13.00;;
56233;SDS011;42141;53.240;6.580;2022-10-31T04:41:27;21.35;;;12.50;;
56233;SDS011;42141;53.240;6.580;2022-10-31T04:43:53;22.60;;;12.40;;
56233;SDS011;42141;53.240;6.580;2022-10-31T04:46:19;25.65;;;13.80;;
56233;SDS011;42141;53.240;6.580;2022-10-31T04:48:50;22.92;;;12.45;;
56233;SDS011;42141;53.240;6.580;2022-10-31T04:51:16;21.30;;;12.57;;
56233;SDS011;42141;53.240;6.580;2022-10-31T04:53:42;26.33;;;12.68;;
56233;SDS011;42141;53.240;6.580;2022-10-31T04:56:08;19.98;;;12.93;;
56233;SDS011;42141;53.240;6.580;2022-10-31T04:58:33;24.73;;;13.02;;
56233;SDS011;42141;53.240;6.580;2022-10-31T05:01:00;21.15;;;13.13;;
56233;SDS011;42141;53.240;6.580;2022-10-31T05:03:33;22.42;;;12.48;;
56233;SDS011;42141;53.240;6.580;2022-10-31T05:05:59;27.35;;;13.90;;
56233;SDS011;42141;53.240;6.580;2022-10-31T05:08:25;21.27;;;12.95;;
56233;SDS011;42141;53.240;6.580;2022-10-31T05:10:51;23.83;;;12.85;;
56233;SDS011;42141;53.240;6.580;2022-10-31T05:13:17;26.73;;;13.55;;
56233;SDS011;42141;53.240;6.580;2022-10-31T05:15:51;24.52;;;13.55;;
56233;SDS011;42141;53.240;6.580;2022-10-31T05:18:17;20.35;;;12.73;;
56233;SDS011;42141;53.240;6.580;2022-10-31T05:20:43;17.90;;;12.05;;
56233;SDS011;42141;53.240;6.580;2022-10-31T05:23:08;20.35;;;13.57;;
56233;SDS011;42141;53.240;6.580;2022-10-31T05:25:34;21.25;;;13.23;;
56233;SDS011;42141;53.240;6.580;2022-10-31T05:28:00;22.00;;;12.88;;
56233;SDS011;42141;53.240;6.580;2022-10-31T05:30:27;23.25;;;12.95;;
56233;SDS011;42141;53.240;6.580;2022-10-31T05:32:54;19.65;;;13.13;;
56233;SDS011;42141;53.240;6.580;2022-10-31T05:35:25;26.92;;;13.30;;
56233;SDS011;42141;53.240;6.580;2022-10-31T05:37:53;23.88;;;13.63;;
56233;SDS011;42141;53.240;6.580;2022-10-31T05:40:19;20.45;;;12.65;;
56233;SDS011;42141;53.240;6.580;2022-10-31T05:42:46;23.23;;;13.10;;
56233;SDS011;42141;53.240;6.580;2022-10-31T05:45:13;18.23;;;12.73;;
56233;SDS011;42141;53.240;6.580;2022-10-31T05:47:41;23.23;;;13.10;;
56233;SDS011;42141;53.240;6.580;2022-10-31T05:50:15;28.83;;;12.23;;
56233;SDS011;42141;53.240;6.580;2022-10-31T05:52:41;25.60;;;12.75;;
56233;SDS011;42141;53.240;6.580;2022-10-31T05:55:06;22.02;;;12.90;;
56233;SDS011;42141;53.240;6.580;2022-10-31T05:57:32;20.25;;;12.95;;
56233;SDS011;42141;53.240;6.580;2022-10-31T05:59:59;23.67;;;12.50;;
56233;SDS011;42141;53.240;6.580;2022-10-31T06:02:25;22.00;;;12.90;;
56233;SDS011;42141;53.240;6.580;2022-10-31T06:04:51;24.10;;;13.65;;
56233;SDS011;42141;53.240;6.580;2022-10-31T06:07:17;31.00;;;14.55;;
56233;SDS011;42141;53.240;6.580;2022-10-31T06:09:43;19.60;;;13.07;;
56233;SDS011;42141;53.240;6.580;2022-10-31T06:12:09;27.35;;;14.02;;
56233;SDS011;42141;53.240;6.580;2022-10-31T06:14:35;23.77;;;12.27;;
56233;SDS011;42141;53.240;6.580;2022-10-31T06:17:00;15.80;;;11.65;;
56233;SDS011;42141;53.240;6.580;2022-10-31T06:19:32;25.63;;;12.60;;
56233;SDS011;42141;53.240;6.580;2022-10-31T06:21:57;19.70;;;12.15;;
56233;SDS011;42141;53.240;6.580;2022-10-31T06:24:26;20.88;;;13.38;;
56233;SDS011;42141;53.240;6.580;2022-10-31T06:26:52;21.17;;;12.65;;
56233;SDS011;42141;53.240;6.580;2022-10-31T06:29:18;22.73;;;12.10;;
56233;SDS011;42141;53.240;6.580;2022-10-31T06:31:43;24.92;;;12.65;;
56233;SDS011;42141;53.240;6.580;2022-10-31T06:34:09;20.35;;;12.75;;
56233;SDS011;42141;53.240;6.580;2022-10-31T06:36:35;23.65;;;13.18;;
56233;SDS011;42141;53.240;6.580;2022-10-31T06:39:03;19.08;;;13.00;;
56233;SDS011;42141;53.240;6.580;2022-10-31T06:41:29;28.83;;;13.48;;
56233;SDS011;42141;53.240;6.580;2022-10-31T06:43:55;25.55;;;14.10;;
56233;SDS011;42141;53.240;6.580;2022-10-31T06:46:20;21.20;;;12.15;;
56233;SDS011;42141;53.240;6.580;2022-10-31T06:48:46;17.15;;;12.38;;
56233;SDS011;42141;53.240;6.580;2022-10-31T06:51:12;20.90;;;12.18;;
56233;SDS011;42141;53.240;6.580;2022-10-31T06:53:37;19.77;;;12.45;;
56233;SDS011;42141;53.240;6.580;2022-10-31T06:56:03;21.20;;;12.30;;
56233;SDS011;42141;53.240;6.580;2022-10-31T06:58:32;24.67;;;13.52;;
56233;SDS011;42141;53.240;6.580;2022-10-31T07:01:01;21.83;;;12.90;;
56233;SDS011;42141;53.240;6.580;2022-10-31T07:03:26;22.95;;;12.85;;
56233;SDS011;42141;53.240;6.580;2022-10-31T07:05:57;20.30;;;13.15;;
56233;SDS011;42141;53.240;6.580;2022-10-31T07:08:23;20.23;;;12.48;;
56233;SDS011;42141;53.240;6.580;2022-10-31T07:10:51;21.50;;;12.10;;
56233;SDS011;42141;53.240;6.580;2022-10-31T07:13:18;17.10;;;12.38;;
56233;SDS011;42141;53.240;6.580;2022-10-31T07:15:49;30.92;;;15.90;;
56233;SDS011;42141;53.240;6.580;2022-10-31T07:18:15;25.63;;;14.23;;
56233;SDS011;42141;53.240;6.580;2022-10-31T07:20:41;22.75;;;14.32;;
56233;SDS011;42141;53.240;6.580;2022-10-31T07:23:07;24.05;;;13.77;;
56233;SDS011;42141;53.240;6.580;2022-10-31T07:25:34;23.27;;;13.20;;
56233;SDS011;42141;53.240;6.580;2022-10-31T07:28:00;30.48;;;14.10;;
56233;SDS011;42141;53.240;6.580;2022-10-31T07:30:27;25.48;;;15.57;;
56233;SDS011;42141;53.240;6.580;2022-10-31T07:32:52;24.90;;;14.60;;
56233;SDS011;42141;53.240;6.580;2022-10-31T07:35:22;25.85;;;15.65;;
56233;SDS011;42141;53.240;6.580;2022-10-31T07:37:51;31.75;;;15.75;;
56233;SDS011;42141;53.240;6.580;2022-10-31T07:40:17;27.02;;;15.20;;
56233;SDS011;42141;53.240;6.580;2022-10-31T07:42:45;30.00;;;17.35;;
56233;SDS011;42141;53.240;6.580;2022-10-31T07:45:16;24.75;;;16.42;;
56233;SDS011;42141;53.240;6.580;2022-10-31T07:47:48;28.25;;;17.52;;
56233;SDS011;42141;53.240;6.580;2022-10-31T07:50:16;28.40;;;15.95;;
56233;SDS011;42141;53.240;6.580;2022-10-31T07:52:44;24.67;;;16.33;;
56233;SDS011;42141;53.240;6.580;2022-10-31T07:55:10;24.42;;;15.75;;
56233;SDS011;42141;53.240;6.580;2022-10-31T07:57:37;28.45;;;17.05;;
56233;SDS011;42141;53.240;6.580;2022-10-31T08:00:03;31.30;;;17.13;;
56233;SDS011;42141;53.240;6.580;2022-10-31T08:02:30;25.58;;;15.93;;
56233;SDS011;42141;53.240;6.580;2022-10-31T08:04:56;32.97;;;15.95;;
56233;SDS011;42141;53.240;6.580;2022-10-31T08:07:25;25.83;;;15.30;;
56233;SDS011;42141;53.240;6.580;2022-10-31T08:09:52;22.48;;;15.13;;
56233;SDS011;42141;53.240;6.580;2022-10-31T08:12:21;22.63;;;15.10;;
56233;SDS011;42141;53.240;6.580;2022-10-31T08:14:47;24.02;;;14.88;;
56233;SDS011;42141;53.240;6.580;2022-10-31T08:17:14;24.80;;;14.65;;
56233;SDS011;42141;53.240;6.580;2022-10-31T08:19:40;22.88;;;13.82;;
56233;SDS011;42141;53.240;6.580;2022-10-31T08:22:06;18.75;;;14.10;;
56233;SDS011;42141;53.240;6.580;2022-10-31T08:24:32;23.23;;;13.68;;
56233;SDS011;42141;53.240;6.580;2022-10-31T08:26:59;15.43;;;12.23;;
56233;SDS011;42141;53.240;6.580;2022-10-31T08:29:25;19.13;;;12.73;;
56233;SDS011;42141;53.240;6.580;2022-10-31T08:31:59;20.17;;;12.45;;
56233;SDS011;42141;53.240;6.580;2022-10-31T08:34:25;20.52;;;13.60;;
56233;SDS011;42141;53.240;6.580;2022-10-31T08:36:51;24.63;;;12.88;;
56233;SDS011;42141;53.240;6.580;2022-10-31T08:39:17;25.20;;;12.18;;
56233;SDS011;42141;53.240;6.580;2022-10-31T08:41:43;18.05;;;11.55;;
56233;SDS011;42141;53.240;6.580;2022-10-31T08:44:09;21.00;;;12.25;;
56233;SDS011;42141;53.240;6.580;2022-10-31T08:46:36;18.95;;;11.23;;
56233;SDS011;42141;53.240;6.580;2022-10-31T08:49:02;16.05;;;11.48;;
56233;SDS011;42141;53.240;6.580;2022-10-31T08:51:28;19.02;;;11.18;;
56233;SDS011;42141;53.240;6.580;2022-10-31T08:54:00;17.80;;;11.60;;
56233;SDS011;42141;53.240;6.580;2022-10-31T08:56:27;18.55;;;11.15;;
56233;SDS011;42141;53.240;6.580;2022-10-31T08:58:53;22.20;;;11.18;;
56233;SDS011;42141;53.240;6.580;2022-10-31T09:01:19;17.10;;;10.98;;
56233;SDS011;42141;53.240;6.580;2022-10-31T09:03:44;19.38;;;11.48;;
56233;SDS011;42141;53.240;6.580;2022-10-31T09:06:10;18.90;;;12.35;;
56233;SDS011;42141;53.240;6.580;2022-10-31T09:08:36;17.70;;;12.30;;
56233;SDS011;42141;53.240;6.580;2022-10-31T09:11:02;16.23;;;12.00;;
56233;SDS011;42141;53.240;6.580;2022-10-31T09:13:28;17.38;;;11.65;;
56233;SDS011;42141;53.240;6.580;2022-10-31T09:15:55;16.10;;;11.10;;
56233;SDS011;42141;53.240;6.580;2022-10-31T09:18:23;22.30;;;11.02;;
56233;SDS011;42141;53.240;6.580;2022-10-31T09:20:49;16.23;;;11.45;;
56233;SDS011;42141;53.240;6.580;2022-10-31T09:23:19;21.13;;;11.80;;
56233;SDS011;42141;53.240;6.580;2022-10-31T09:25:46;19.80;;;11.65;;
56233;SDS011;42141;53.240;6.580;2022-10-31T09:28:15;16.27;;;11.20;;
56233;SDS011;42141;53.240;6.580;2022-10-31T09:30:45;18.92;;;11.32;;
56233;SDS011;42141;53.240;6.580;2022-10-31T09:33:12;15.35;;;11.13;;
56233;SDS011;42141;53.240;6.580;2022-10-31T09:35:39;14.90;;;10.90;;
56233;SDS011;42141;53.240;6.580;2022-10-31T09:38:06;17.92;;;11.60;;
56233;SDS011;42141;53.240;6.580;2022-10-31T09:46:12;16.85;;;10.25;;
56233;SDS011;42141;53.240;6.580;2022-10-31T09:51:45;12.55;;;9.60;;
56233;SDS011;42141;53.240;6.580;2022-10-31T09:54:27;15.15;;;9.80;;
56233;SDS011;42141;53.240;6.580;2022-10-31T09:57:14;14.40;;;10.35;;
56233;SDS011;42141;53.240;6.580;2022-10-31T09:59:43;13.95;;;8.82;;
56233;SDS011;42141;53.240;6.580;2022-10-31T10:04:54;13.35;;;8.77;;
56233;SDS011;42141;53.240;6.580;2022-10-31T10:13:27;11.23;;;8.90;;
56233;SDS011;42141;53.240;6.580;2022-10-31T10:16:02;13.68;;;10.57;;
56233;SDS011;42141;53.240;6.580;2022-10-31T10:24:12;13.50;;;8.70;;
56233;SDS011;42141;53.240;6.580;2022-10-31T10:32:32;10.73;;;7.57;;
56233;SDS011;42141;53.240;6.580;2022-10-31T10:37:44;11.70;;;6.22;;
56233;SDS011;42141;53.240;6.580;2022-10-31T10:40:16;11.98;;;5.80;;
56233;SDS011;42141;53.240;6.580;2022-10-31T10:42:48;10.43;;;5.72;;
56233;SDS011;42141;53.240;6.580;2022-10-31T10:46:38;10.60;;;6.55;;
56233;SDS011;42141;53.240;6.580;2022-10-31T10:56:51;11.45;;;6.47;;
56233;SDS011;42141;53.240;6.580;2022-10-31T10:59:31;10.27;;;6.40;;
56233;SDS011;42141;53.240;6.580;2022-10-31T11:01:57;12.85;;;6.95;;
56233;SDS011;42141;53.240;6.580;2022-10-31T11:04:34;11.27;;;6.32;;
56233;SDS011;42141;53.240;6.580;2022-10-31T11:07:10;10.77;;;7.53;;
56233;SDS011;42141;53.240;6.580;2022-10-31T11:09:37;13.93;;;8.30;;
56233;SDS011;42141;53.240;6.580;2022-10-31T11:12:07;11.45;;;7.10;;
56233;SDS011;42141;53.240;6.580;2022-10-31T11:14:48;16.02;;;8.90;;
56233;SDS011;42141;53.240;6.580;2022-10-31T11:17:30;11.40;;;7.20;;
56233;SDS011;42141;53.240;6.580;2022-10-31T11:22:37;12.80;;;7.53;;
56233;SDS011;42141;53.240;6.580;2022-10-31T11:27:44;14.70;;;7.55;;
56233;SDS011;42141;53.240;6.580;2022-10-31T11:30:25;13.63;;;7.05;;
56233;SDS011;42141;53.240;6.580;2022-10-31T11:32:51;12.38;;;6.35;;
56233;SDS011;42141;53.240;6.580;2022-10-31T11:35:18;14.32;;;6.57;;
56233;SDS011;42141;53.240;6.580;2022-10-31T11:37:46;13.80;;;6.70;;
56233;SDS011;42141;53.240;6.580;2022-10-31T11:40:18;11.55;;;7.30;;
56233;SDS011;42141;53.240;6.580;2022-10-31T11:42:48;26.17;;;6.85;;
56233;SDS011;42141;53.240;6.580;2022-10-31T11:45:33;13.23;;;6.22;;
56233;SDS011;42141;53.240;6.580;2022-10-31T11:48:00;12.55;;;5.82;;
56233;SDS011;42141;53.240;6.580;2022-10-31T11:50:33;12.18;;;6.03;;
56233;SDS011;42141;53.240;6.580;2022-10-31T11:53:02;11.60;;;5.78;;
56233;SDS011;42141;53.240;6.580;2022-10-31T11:55:30;8.70;;;5.38;;
56233;SDS011;42141;53.240;6.580;2022-10-31T11:57:58;12.60;;;5.07;;
56233;SDS011;42141;53.240;6.580;2022-10-31T12:00:37;13.13;;;4.88;;
56233;SDS011;42141;53.240;6.580;2022-10-31T12:08:45;10.18;;;5.63;;
56233;SDS011;42141;53.240;6.580;2022-10-31T12:11:26;11.60;;;5.93;;
56233;SDS011;42141;53.240;6.580;2022-10-31T12:22:33;10.65;;;5.35;;
56233;SDS011;42141;53.240;6.580;2022-10-31T12:25:21;9.27;;;5.97;;
56233;SDS011;42141;53.240;6.580;2022-10-31T12:27:55;8.65;;;5.32;;
56233;SDS011;42141;53.240;6.580;2022-10-31T12:30:39;17.05;;;5.72;;
56233;SDS011;42141;53.240;6.580;2022-10-31T12:49:57;15.35;;;4.15;;
56233;SDS011;42141;53.240;6.580;2022-10-31T12:58:26;9.35;;;4.25;;
56233;SDS011;42141;53.240;6.580;2022-10-31T13:01:12;9.13;;;4.82;;
56233;SDS011;42141;53.240;6.580;2022-10-31T13:06:18;7.20;;;3.92;;
56233;SDS011;42141;53.240;6.580;2022-10-31T13:08:54;9.50;;;4.75;;
56233;SDS011;42141;53.240;6.580;2022-10-31T13:11:30;11.10;;;4.10;;
56233;SDS011;42141;53.240;6.580;2022-10-31T13:14:07;12.50;;;5.05;;
56233;SDS011;42141;53.240;6.580;2022-10-31T13:16:44;8.43;;;4.85;;
56233;SDS011;42141;53.240;6.580;2022-10-31T13:27:37;11.85;;;4.75;;
56233;SDS011;42141;53.240;6.580;2022-10-31T13:30:20;10.77;;;4.07;;
56233;SDS011;42141;53.240;6.580;2022-10-31T13:33:34;13.02;;;4.50;;
56233;SDS011;42141;53.240;6.580;2022-10-31T13:35:41;5.88;;;3.13;;
56233;SDS011;42141;53.240;6.580;2022-10-31T13:48:56;7.25;;;2.75;;
56233;SDS011;42141;53.240;6.580;2022-10-31T13:51:26;7.82;;;2.97;;
56233;SDS011;42141;53.240;6.580;2022-10-31T13:56:30;9.13;;;2.78;;
56233;SDS011;42141;53.240;6.580;2022-10-31T14:02:30;11.55;;;3.17;;
56233;SDS011;42141;53.240;6.580;2022-10-31T14:04:46;12.82;;;4.35;;
56233;SDS011;42141;53.240;6.580;2022-10-31T14:07:18;12.57;;;4.03;;
56233;SDS011;42141;53.240;6.580;2022-10-31T14:12:33;8.88;;;3.58;;
56233;SDS011;42141;53.240;6.580;2022-10-31T14:15:13;11.60;;;4.40;;
56233;SDS011;42141;53.240;6.580;2022-10-31T14:17:58;12.65;;;4.43;;
56233;SDS011;42141;53.240;6.580;2022-10-31T14:23:38;12.65;;;4.47;;
56233;SDS011;42141;53.240;6.580;2022-10-31T14:26:16;12.88;;;4.60;;
56233;SDS011;42141;53.240;6.580;2022-10-31T14:28:50;8.02;;;4.28;;
56233;SDS011;42141;53.240;6.580;2022-10-31T14:37:14;10.00;;;4.68;;
56233;SDS011;42141;53.240;6.580;2022-10-31T14:40:10;11.18;;;5.00;;
56233;SDS011;42141;53.240;6.580;2022-10-31T14:51:33;17.02;;;4.72;;
56233;SDS011;42141;53.240;6.580;2022-10-31T14:54:04;10.82;;;4.72;;
56233;SDS011;42141;53.240;6.580;2022-10-31T14:56:35;9.82;;;3.70;;
56233;SDS011;42141;53.240;6.580;2022-10-31T14:59:04;13.95;;;4.35;;
56233;SDS011;42141;53.240;6.580;2022-10-31T15:01:35;13.65;;;4.30;;
56233;SDS011;42141;53.240;6.580;2022-10-31T15:04:04;12.65;;;3.60;;
56233;SDS011;42141;53.240;6.580;2022-10-31T15:06:42;10.52;;;4.03;;
56233;SDS011;42141;53.240;6.580;2022-10-31T15:09:20;11.85;;;3.35;;
56233;SDS011;42141;53.240;6.580;2022-10-31T15:11:54;19.30;;;4.72;;
56233;SDS011;42141;53.240;6.580;2022-10-31T15:14:22;9.30;;;4.05;;
56233;SDS011;42141;53.240;6.580;2022-10-31T15:16:49;20.55;;;5.03;;
56233;SDS011;42141;53.240;6.580;2022-10-31T15:19:21;13.02;;;4.80;;
56233;SDS011;42141;53.240;6.580;2022-10-31T15:21:49;16.17;;;4.55;;
56233;SDS011;42141;53.240;6.580;2022-10-31T15:24:18;12.63;;;4.63;;
56233;SDS011;42141;53.240;6.580;2022-10-31T15:26:49;12.18;;;4.93;;
56233;SDS011;42141;53.240;6.580;2022-10-31T15:29:19;12.18;;;5.47;;
56233;SDS011;42141;53.240;6.580;2022-10-31T15:31:51;11.82;;;5.22;;
56233;SDS011;42141;53.240;6.580;2022-10-31T15:34:26;10.75;;;5.65;;
56233;SDS011;42141;53.240;6.580;2022-10-31T15:36:54;12.80;;;5.43;;
56233;SDS011;42141;53.240;6.580;2022-10-31T15:39:22;13.88;;;6.13;;
56233;SDS011;42141;53.240;6.580;2022-10-31T15:41:52;14.85;;;5.68;;
56233;SDS011;42141;53.240;6.580;2022-10-31T15:44:24;15.02;;;6.82;;
56233;SDS011;42141;53.240;6.580;2022-10-31T15:47:02;12.93;;;7.05;;
56233;SDS011;42141;53.240;6.580;2022-10-31T15:52:14;19.08;;;7.25;;
56233;SDS011;42141;53.240;6.580;2022-10-31T15:54:46;15.50;;;7.28;;
56233;SDS011;42141;53.240;6.580;2022-10-31T15:57:18;12.85;;;7.05;;
56233;SDS011;42141;53.240;6.580;2022-10-31T15:59:47;12.18;;;7.03;;
56233;SDS011;42141;53.240;6.580;2022-10-31T16:02:18;15.35;;;7.30;;
56233;SDS011;42141;53.240;6.580;2022-10-31T16:04:56;20.02;;;8.15;;
56233;SDS011;42141;53.240;6.580;2022-10-31T16:07:24;12.43;;;7.57;;
56233;SDS011;42141;53.240;6.580;2022-10-31T16:09:51;16.85;;;7.78;;
56233;SDS011;42141;53.240;6.580;2022-10-31T16:12:21;15.90;;;8.48;;
56233;SDS011;42141;53.240;6.580;2022-10-31T16:14:53;15.45;;;8.18;;
56233;SDS011;42141;53.240;6.580;2022-10-31T16:17:21;13.95;;;8.68;;
56233;SDS011;42141;53.240;6.580;2022-10-31T16:19:57;12.05;;;7.53;;
56233;SDS011;42141;53.240;6.580;2022-10-31T16:22:30;21.77;;;7.50;;
56233;SDS011;42141;53.240;6.580;2022-10-31T16:27:32;22.45;;;8.60;;
56233;SDS011;42141;53.240;6.580;2022-10-31T16:30:00;13.98;;;8.00;;
56233;SDS011;42141;53.240;6.580;2022-10-31T16:32:36;14.27;;;7.05;;
56233;SDS011;42141;53.240;6.580;2022-10-31T16:35:24;14.25;;;6.43;;
56233;SDS011;42141;53.240;6.580;2022-10-31T16:37:52;12.68;;;6.82;;
56233;SDS011;42141;53.240;6.580;2022-10-31T16:40:18;11.80;;;6.70;;
56233;SDS011;42141;53.240;6.580;2022-10-31T16:42:45;12.05;;;5.95;;
56233;SDS011;42141;53.240;6.580;2022-10-31T16:45:24;14.77;;;5.93;;
56233;SDS011;42141;53.240;6.580;2022-10-31T16:47:51;14.60;;;6.95;;
56233;SDS011;42141;53.240;6.580;2022-10-31T16:50:21;10.52;;;5.85;;
56233;SDS011;42141;53.240;6.580;2022-10-31T16:52:49;12.70;;;5.60;;
56233;SDS011;42141;53.240;6.580;2022-10-31T16:55:16;13.75;;;5.65;;
56233;SDS011;42141;53.240;6.580;2022-10-31T16:57:44;10.30;;;5.43;;
56233;SDS011;42141;53.240;6.580;2022-10-31T17:00:16;9.32;;;5.35;;
56233;SDS011;42141;53.240;6.580;2022-10-31T17:02:44;8.45;;;5.22;;
56233;SDS011;42141;53.240;6.580;2022-10-31T17:05:14;8.05;;;5.05;;
56233;SDS011;42141;53.240;6.580;2022-10-31T17:07:42;10.02;;;5.22;;
56233;SDS011;42141;53.240;6.580;2022-10-31T17:10:09;13.23;;;5.72;;
56233;SDS011;42141;53.240;6.580;2022-10-31T17:12:36;10.65;;;6.03;;
56233;SDS011;42141;53.240;6.580;2022-10-31T17:15:03;12.07;;;5.68;;
56233;SDS011;42141;53.240;6.580;2022-10-31T17:17:31;14.25;;;7.10;;
56233;SDS011;42141;53.240;6.580;2022-10-31T17:19:57;11.35;;;6.22;;
56233;SDS011;42141;53.240;6.580;2022-10-31T17:22:22;12.40;;;6.95;;